Time;durP1;ratioP1;P1;durP2;ratioP2;P2;SDS_P1;SDS_P2;PMS_P1;PMS_P2;Temp;Humidity;BMP_temperature;BMP_pressure;BME280_temperature;BME280_humidity;BME280_pressure;Samples;Min_cycle;Max_cycle;Signal;HPM_P1;HPM_P2
2022/09/24 00:01:11;;;;;;;33.25;7.60;;;;;;;11.60;100.00;97724.44;5045011;28;20510;-60
2022/09/24 00:03:38;;;;;;;29.35;6.28;;;;;;;12.74;100.00;97731.66;5044039;28;20033;-56
2022/09/24 00:06:05;;;;;;;27.23;6.13;;;;;;;12.44;100.00;97724.53;5043909;28;20041;-60
2022/09/24 00:08:31;;;;;;;27.98;7.43;;;;;;;11.57;100.00;97716.75;5044617;28;20055;-58
2022/09/24 00:11:00;;;;;;;26.70;7.10;;;;;;;11.71;100.00;97719.50;5047359;28;20040;-58
2022/09/24 00:13:25;;;;;;;37.20;8.23;;;;;;;11.42;100.00;97714.88;5046050;28;20078;-56
2022/09/24 00:15:51;;;;;;;39.75;7.70;;;;;;;11.74;100.00;97729.81;5047036;28;20037;-57
2022/09/24 00:18:17;;;;;;;36.50;8.50;;;;;;;11.26;100.00;97723.44;5046851;28;20824;-59
2022/09/24 00:20:43;;;;;;;50.47;9.93;;;;;;;11.36;100.00;97719.47;5045614;28;20045;-57
2022/09/24 00:23:10;;;;;;;38.33;9.23;;;;;;;11.06;100.00;97720.94;5048309;28;20514;-58
2022/09/24 00:28:31;;;;;;;43.30;10.13;;;;;;;10.79;100.00;97716.13;5047205;28;20139;-58
2022/09/24 00:30:57;;;;;;;50.63;10.75;;;;;;;11.25;100.00;97716.56;5044611;28;20041;-57
2022/09/24 00:33:23;;;;;;;37.17;9.13;;;;;;;11.04;100.00;97707.13;5046630;28;20028;-58
2022/09/24 00:35:50;;;;;;;27.13;7.55;;;;;;;10.96;100.00;97715.31;5045214;28;20033;-59
2022/09/24 00:38:16;;;;;;;31.95;8.63;;;;;;;10.85;100.00;97713.22;5048684;28;20029;-59
2022/09/24 00:40:41;;;;;;;41.38;9.13;;;;;;;10.98;100.00;97709.09;5049482;28;20065;-58
2022/09/24 00:43:26;;;;;;;23.92;7.38;;;;;;;10.80;100.00;97709.97;5049652;28;20151;-59
2022/09/24 00:45:58;;;;;;;29.50;7.70;;;;;;;10.77;100.00;97710.09;5049396;28;20133;-62
2022/09/24 00:48:24;;;;;;;30.58;8.15;;;;;;;10.94;100.00;97699.75;5050032;28;20909;-61
2022/09/24 00:50:49;;;;;;;26.15;6.35;;;;;;;11.43;100.00;97706.97;5047856;28;20040;-59
2022/09/24 00:53:18;;;;;;;42.13;8.15;;;;;;;11.14;100.00;97697.97;5050861;28;20212;-60
2022/09/24 00:55:49;;;;;;;24.52;7.30;;;;;;;11.07;100.00;97697.41;5048713;28;20472;-59
2022/09/24 00:58:15;;;;;;;30.20;7.35;;;;;;;11.46;100.00;97700.75;5048584;28;20024;-59
2022/09/24 01:00:44;;;;;;;38.92;7.40;;;;;;;12.09;100.00;97702.81;5048170;28;20036;-60
2022/09/24 01:03:18;;;;;;;32.47;7.53;;;;;;;11.05;100.00;97693.19;5049715;28;20107;-59
2022/09/24 01:05:43;;;;;;;35.72;7.90;;;;;;;10.89;100.00;97693.88;5046185;28;20059;-59
2022/09/24 01:08:13;;;;;;;25.08;7.25;;;;;;;10.93;100.00;97689.38;5048941;28;20139;-61
2022/09/24 01:11:01;;;;;;;44.97;8.73;;;;;;;10.89;100.00;97699.09;5049714;28;20028;-61
2022/09/24 01:14:02;;;;;;;30.83;6.47;;;;;;;11.67;100.00;97691.00;5048297;28;20548;-59
2022/09/24 01:16:46;;;;;;;26.50;6.50;;;;;;;10.96;100.00;97690.06;5048084;28;20033;-60
2022/09/24 01:19:35;;;;;;;32.22;7.22;;;;;;;11.33;100.00;97687.47;5048504;28;20036;-59
2022/09/24 01:22:10;;;;;;;24.55;7.05;;;;;;;11.15;100.00;97684.81;5047125;28;20036;-60
2022/09/24 01:24:48;;;;;;;26.30;6.60;;;;;;;11.35;100.00;97681.22;5048791;28;20058;-59
2022/09/24 01:27:18;;;;;;;33.97;7.60;;;;;;;10.93;100.00;97685.00;5048152;28;20100;-60
2022/09/24 01:30:06;;;;;;;26.52;7.00;;;;;;;11.07;100.00;97671.28;5047337;28;20032;-61
2022/09/24 01:33:02;;;;;;;29.10;6.68;;;;;;;10.72;100.00;97676.41;5048285;28;20068;-59
2022/09/24 01:35:33;;;;;;;24.90;7.00;;;;;;;10.92;100.00;97667.66;5047947;28;20032;-61
2022/09/24 01:38:08;;;;;;;28.23;7.13;;;;;;;11.15;100.00;97665.69;5046871;28;20032;-59
2022/09/24 01:40:34;;;;;;;32.15;7.53;;;;;;;10.84;100.00;97664.56;5047693;28;20044;-62
2022/09/24 01:43:04;;;;;;;24.85;6.93;;;;;;;11.29;100.00;97655.44;5048396;28;20024;-61
2022/09/24 01:45:31;;;;;;;26.75;6.25;;;;;;;11.47;100.00;97658.03;5048558;28;20857;-59
2022/09/24 01:48:02;;;;;;;29.13;6.93;;;;;;;11.24;100.00;97652.19;5051655;28;20174;-61
2022/09/24 01:50:33;;;;;;;26.00;6.80;;;;;;;11.33;100.00;97645.69;5049433;28;21106;-62
2022/09/24 01:53:10;;;;;;;30.25;7.32;;;;;;;11.36;100.00;97641.16;5050472;28;20036;-60
2022/09/24 01:55:43;;;;;;;23.25;6.25;;;;;;;11.47;100.00;97650.19;5047118;28;20102;-62
2022/09/24 01:58:13;;;;;;;23.85;6.93;;;;;;;11.24;100.00;97643.53;5047800;28;20066;-59
2022/09/24 02:00:45;;;;;;;36.67;7.82;;;;;;;10.68;100.00;97632.28;5047955;28;20181;-58
2022/09/24 02:03:14;;;;;;;27.88;7.10;;;;;;;10.79;100.00;97624.81;5052008;28;20038;-60
2022/09/24 02:05:57;;;;;;;29.08;7.28;;;;;;;10.43;100.00;97615.19;5047515;28;20570;-59
2022/09/24 02:08:25;;;;;;;;;;;;;;;10.76;100.00;97612.75;5051162;28;20036;-61
2022/09/24 02:11:00;;;;;;;24.88;6.75;;;;;;;11.13;100.00;97607.50;5046163;28;20776;-60
2022/09/24 02:13:28;;;;;;;26.05;6.75;;;;;;;11.08;100.00;97599.06;5046816;28;20024;-60
2022/09/24 02:16:01;;;;;;;30.58;6.85;;;;;;;11.12;100.00;97604.06;5052983;28;20108;-60
2022/09/24 02:18:33;;;;;;;24.23;6.75;;;;;;;10.78;100.00;97602.25;5049853;28;20079;-63
2022/09/24 02:21:01;;;;;;;;;;;;;;;10.75;100.00;97597.16;5050051;28;20451;-60
2022/09/24 02:23:30;;;;;;;24.55;6.90;;;;;;;10.84;100.00;97599.31;5049858;28;19920;-62
2022/09/24 02:26:01;;;;;;;22.30;6.30;;;;;;;10.99;100.00;97605.56;5047820;28;20041;-61
2022/09/24 02:28:27;;;;;;;30.52;7.47;;;;;;;11.28;100.00;97596.28;5048063;28;20031;-63
2022/09/24 02:31:05;;;;;;;31.30;7.55;;;;;;;10.88;100.00;97582.63;5045039;28;20040;-62
2022/09/24 02:36:18;;;;;;;27.52;8.07;;;;;;;10.36;100.00;97579.88;5047164;28;20047;-61
2022/09/24 02:38:45;;;;;;;26.10;6.47;;;;;;;11.06;100.00;97600.91;5047929;28;20029;-63
2022/09/24 02:41:12;;;;;;;24.83;7.00;;;;;;;11.14;100.00;97598.78;5046717;28;20029;-59
2022/09/24 02:43:39;;;;;;;30.08;7.57;;;;;;;10.47;100.00;97587.22;5050117;28;20050;-61
2022/09/24 02:46:08;;;;;;;25.85;7.20;;;;;;;10.49;100.00;97591.44;5046916;28;20453;-59
2022/09/24 02:48:36;;;;;;;29.30;7.57;;;;;;;10.52;100.00;97587.84;5049172;28;20025;-60
2022/09/24 02:51:04;;;;;;;26.23;7.05;;;;;;;10.34;100.00;97592.16;5046735;28;20083;-59
2022/09/24 02:53:30;;;;;;;21.70;6.38;;;;;;;10.64;100.00;97589.00;5048407;28;20025;-60
2022/09/24 02:55:56;;;;;;;29.90;8.02;;;;;;;10.50;100.00;97587.06;5046234;28;20056;-61
2022/09/24 02:58:21;;;;;;;28.25;7.43;;;;;;;10.66;100.00;97576.75;5046732;28;20164;-59
2022/09/24 03:00:47;;;;;;;41.55;8.90;;;;;;;10.39;100.00;97574.53;5047704;28;20406;-59
2022/09/24 03:03:12;;;;;;;23.27;5.97;;;;;;;11.02;100.00;97583.72;5047471;28;20028;-59
2022/09/24 03:05:37;;;;;;;26.13;5.85;;;;;;;12.30;100.00;97591.03;5047629;28;20120;-58
2022/09/24 03:08:03;;;;;;;25.55;6.47;;;;;;;11.57;100.00;97580.91;5048793;28;20056;-62
2022/09/24 03:10:29;;;;;;;22.13;6.65;;;;;;;10.87;100.00;97580.94;5048923;28;20095;-59
2022/09/24 03:12:55;;;;;;;30.63;7.50;;;;;;;10.49;100.00;97583.59;5048485;28;20470;-61
2022/09/24 03:15:20;;;;;;;29.33;7.40;;;;;;;10.28;100.00;97579.38;5052757;28;20029;-61
2022/09/24 03:17:46;;;;;;;29.75;7.43;;;;;;;10.49;100.00;97580.16;5050704;28;20474;-59
2022/09/24 03:20:11;;;;;;;27.90;6.78;;;;;;;11.13;100.00;97576.19;5050101;28;20497;-62
2022/09/24 03:22:36;;;;;;;19.60;4.97;;;;;;;12.35;100.00;97581.16;5050939;28;20148;-63
2022/09/24 03:25:02;;;;;;;28.08;6.50;;;;;;;12.25;100.00;97574.75;5049484;28;20020;-62
2022/09/24 03:27:28;;;;;;;29.50;7.32;;;;;;;11.52;100.00;97565.50;5050649;28;20753;-59
2022/09/24 03:32:37;;;;;;;21.05;5.25;;;;;;;12.24;100.00;97575.66;5051619;28;20056;-61
2022/09/24 03:35:03;;;;;;;26.70;7.32;;;;;;;10.85;100.00;97563.66;5051483;28;20021;-59
2022/09/24 03:37:30;;;;;;;28.40;7.43;;;;;;;10.44;100.00;97562.13;5051153;28;20600;-60
2022/09/24 03:39:56;;;;;;;23.10;5.68;;;;;;;11.21;100.00;97566.19;5051271;28;20029;-62
2022/09/24 03:42:21;;;;;;;22.27;5.80;;;;;;;11.37;100.00;97569.72;5048823;28;20093;-61
2022/09/24 03:44:46;;;;;;;21.65;5.18;;;;;;;12.15;100.00;97572.63;5050050;28;20147;-60
2022/09/24 03:47:12;;;;;;;28.90;7.32;;;;;;;10.84;100.00;97564.56;5049836;28;20132;-60
2022/09/24 03:49:37;;;;;;;25.95;7.22;;;;;;;10.80;100.00;97569.94;5050390;28;20037;-60
2022/09/24 03:52:02;;;;;;;23.00;5.43;;;;;;;12.03;100.00;97578.53;5050074;28;20067;-60
2022/09/24 03:54:28;;;;;;;26.85;6.75;;;;;;;11.48;100.00;97581.38;5051942;28;20134;-62
2022/09/24 03:56:53;;;;;;;28.02;7.18;;;;;;;10.55;100.00;97570.28;5051529;28;20036;-62
2022/09/24 03:59:19;;;;;;;32.17;8.13;;;;;;;10.56;100.00;97571.97;5050529;28;20032;-63
2022/09/24 04:01:44;;;;;;;26.10;7.63;;;;;;;10.28;100.00;97572.41;5047622;28;20110;-63
2022/09/24 04:04:13;;;;;;;25.33;7.72;;;;;;;10.09;100.00;97567.22;5051949;28;20032;-60
2022/09/24 04:06:38;;;;;;;27.63;6.90;;;;;;;10.51;100.00;97563.53;5049769;28;20036;-63
2022/09/24 04:09:04;;;;;;;27.80;6.97;;;;;;;10.81;100.00;97560.38;5051359;28;20094;-60
2022/09/24 04:11:29;;;;;;;26.48;7.10;;;;;;;10.88;100.00;97572.19;5049507;28;20048;-61
2022/09/24 04:13:54;;;;;;;24.52;6.70;;;;;;;10.70;100.00;97567.88;5052730;28;20029;-61
2022/09/24 04:16:20;;;;;;;21.77;7.07;;;;;;;10.44;100.00;97567.34;5050493;28;20041;-62
2022/09/24 04:18:47;;;;;;;31.25;7.72;;;;;;;10.52;100.00;97565.22;5051214;28;20082;-63
2022/09/24 04:21:13;;;;;;;18.00;6.07;;;;;;;10.55;100.00;97574.63;5048394;28;20106;-62
2022/09/24 04:23:38;;;;;;;28.20;6.63;;;;;;;11.17;100.00;97568.13;5049145;28;20033;-62
2022/09/24 04:26:03;;;;;;;27.92;6.53;;;;;;;10.88;100.00;97568.72;5047802;28;20041;-61
2022/09/24 04:28:29;;;;;;;27.52;7.22;;;;;;;10.47;100.00;97561.97;5051516;28;20137;-60
2022/09/24 04:30:55;;;;;;;26.42;7.05;;;;;;;10.82;100.00;97567.25;5048637;28;20040;-62
2022/09/24 04:33:20;;;;;;;23.33;6.95;;;;;;;10.98;100.00;97568.19;5048369;28;20039;-61
2022/09/24 04:35:46;;;;;;;30.33;7.18;;;;;;;10.86;100.00;97562.72;5050277;28;20036;-61
2022/09/24 04:38:11;;;;;;;24.42;7.07;;;;;;;10.60;100.00;97559.63;5049808;28;20032;-59
2022/09/24 04:40:38;;;;;;;33.47;7.10;;;;;;;10.96;100.00;97559.59;5049029;28;20562;-58
2022/09/24 04:43:05;;;;;;;29.75;7.30;;;;;;;11.05;100.00;97560.06;5049949;28;20039;-60
2022/09/24 04:45:31;;;;;;;22.85;6.90;;;;;;;10.57;100.00;97558.03;5048618;28;20905;-59
2022/09/24 04:47:56;;;;;;;29.63;7.05;;;;;;;10.74;100.00;97549.38;5048993;28;20077;-60
2022/09/24 04:50:27;;;;;;;25.65;7.45;;;;;;;10.47;100.00;97550.72;5049216;28;20737;-60
2022/09/24 04:52:54;;;;;;;28.13;7.40;;;;;;;10.29;100.00;97557.59;5049055;28;20043;-60
2022/09/24 04:55:19;;;;;;;26.65;7.57;;;;;;;10.55;100.00;97549.44;5048228;28;20060;-59
2022/09/24 04:57:45;;;;;;;37.13;7.93;;;;;;;10.79;100.00;97541.34;5049835;28;20055;-60
2022/09/24 05:00:16;;;;;;;26.10;7.57;;;;;;;10.77;100.00;97551.84;5049816;28;20175;-60
2022/09/24 05:02:42;;;;;;;26.17;7.97;;;;;;;10.95;100.00;97547.50;5048221;28;20470;-59
2022/09/24 05:05:08;;;;;;;27.48;7.60;;;;;;;10.63;100.00;97545.59;5051701;28;20025;-61
2022/09/24 05:07:34;;;;;;;27.88;7.43;;;;;;;10.58;100.00;97546.66;5045981;28;20039;-61
2022/09/24 05:09:59;;;;;;;23.88;7.55;;;;;;;10.67;100.00;97557.56;5046682;28;20042;-62
2022/09/24 05:12:25;;;;;;;28.65;7.68;;;;;;;10.54;100.00;97552.94;5048698;28;20049;-63
2022/09/24 05:14:50;;;;;;;25.02;7.85;;;;;;;10.65;100.00;97556.81;5048714;28;20025;-60
2022/09/24 05:17:15;;;;;;;34.95;8.70;;;;;;;10.65;100.00;97551.59;5047838;28;20029;-60
2022/09/24 05:19:41;;;;;;;32.60;8.38;;;;;;;10.50;100.00;97551.41;5047994;28;20399;-59
2022/09/24 05:22:06;;;;;;;30.75;8.10;;;;;;;9.85;100.00;97550.91;5048033;28;20049;-59
2022/09/24 05:24:31;;;;;;;32.08;7.70;;;;;;;9.69;100.00;97553.38;5050590;28;20465;-60
2022/09/24 05:27:09;;;;;;;25.92;7.65;;;;;;;10.21;100.00;97550.97;5049632;28;20459;-61
2022/09/24 05:29:42;;;;;;;31.60;7.80;;;;;;;10.40;100.00;97550.13;5050101;28;20029;-60
2022/09/24 05:32:14;;;;;;;29.50;8.30;;;;;;;10.35;100.00;97547.78;5049457;28;20039;-60
2022/09/24 05:34:41;;;;;;;30.30;8.23;;;;;;;10.14;100.00;97549.56;5050128;28;20166;-59
2022/09/24 05:37:08;;;;;;;24.35;6.97;;;;;;;10.09;100.00;97541.16;5047749;28;20029;-59
2022/09/24 05:39:33;;;;;;;26.13;7.35;;;;;;;9.97;100.00;97546.91;5049367;28;20017;-61
2022/09/24 05:41:59;;;;;;;23.98;7.28;;;;;;;9.95;100.00;97553.97;5049462;28;20029;-62
2022/09/24 05:44:24;;;;;;;24.42;7.28;;;;;;;10.38;100.00;97552.84;5047301;28;20149;-59
2022/09/24 05:46:51;;;;;;;23.50;6.70;;;;;;;10.79;100.00;97557.81;5047508;28;20734;-60
2022/09/24 05:49:16;;;;;;;30.05;7.97;;;;;;;10.71;100.00;97564.31;5050204;28;20529;-61
2022/09/24 05:51:42;;;;;;;25.90;7.28;;;;;;;10.56;100.00;97551.09;5047510;28;20040;-63
2022/09/24 05:54:09;;;;;;;23.83;7.10;;;;;;;10.99;100.00;97554.25;5050585;28;20384;-63
2022/09/24 05:56:35;;;;;;;26.00;7.00;;;;;;;11.02;100.00;97555.00;5049183;28;20452;-62
2022/09/24 05:59:00;;;;;;;29.92;7.00;;;;;;;11.52;100.00;97551.56;5049637;28;20491;-63
2022/09/24 06:01:28;;;;;;;22.50;6.63;;;;;;;11.00;100.00;97555.91;5048523;28;20509;-61
2022/09/24 06:03:55;;;;;;;25.80;7.05;;;;;;;10.97;100.00;97552.59;5057468;28;20111;-62
2022/09/24 06:06:21;;;;;;;24.80;6.97;;;;;;;11.17;100.00;97554.22;5046074;28;20041;-59
2022/09/24 06:08:46;;;;;;;27.00;6.78;;;;;;;11.92;100.00;97549.50;5049252;28;20033;-63
2022/09/24 06:11:12;;;;;;;17.63;5.53;;;;;;;12.22;100.00;97540.91;5047187;28;20041;-62
2022/09/24 06:13:38;;;;;;;21.88;6.82;;;;;;;12.49;100.00;97533.31;5047894;28;20600;-61
2022/09/24 06:16:06;;;;;;;25.48;6.88;;;;;;;12.89;100.00;97534.50;5048280;28;20029;-61
2022/09/24 06:18:36;;;;;;;26.20;6.97;;;;;;;12.29;100.00;97531.81;5049332;28;20021;-60
2022/09/24 06:21:04;;;;;;;30.42;7.80;;;;;;;11.34;100.00;97538.56;5047038;28;20155;-61
2022/09/24 06:23:30;;;;;;;19.20;6.60;;;;;;;12.66;100.00;97540.22;5049921;28;20039;-59
2022/09/24 06:25:56;;;;;;;24.00;7.10;;;;;;;12.28;100.00;97544.06;5046536;28;20037;-61
2022/09/24 06:28:21;;;;;;;22.65;7.13;;;;;;;12.28;100.00;97546.66;5048572;28;20031;-62
2022/09/24 06:30:47;;;;;;;33.60;7.85;;;;;;;14.07;100.00;97529.19;5047208;28;20032;-65
2022/09/24 06:33:12;;;;;;;21.95;6.38;;;;;;;13.48;100.00;97533.72;5048315;28;20538;-59
2022/09/24 06:35:42;;;;;;;22.88;6.10;;;;;;;14.18;100.00;97533.78;5046897;28;20052;-60
2022/09/24 06:38:11;;;;;;;22.92;6.43;;;;;;;15.20;100.00;97546.44;5047058;28;20490;-60
2022/09/24 06:40:37;;;;;;;29.65;6.97;;;;;;;15.93;100.00;97534.47;5046623;28;20808;-61
2022/09/24 06:43:04;;;;;;;18.75;5.55;;;;;;;16.85;100.00;97526.19;5049448;28;20032;-63
2022/09/24 06:45:29;;;;;;;21.58;6.07;;;;;;;16.98;100.00;97529.59;5045564;28;20032;-62
2022/09/24 06:47:56;;;;;;;20.52;6.25;;;;;;;17.80;100.00;97529.50;5050671;28;20441;-60
2022/09/24 06:50:23;;;;;;;19.80;6.22;;;;;;;20.21;100.00;97532.56;5050518;28;20021;-59
2022/09/24 06:52:49;;;;;;;15.48;5.55;;;;;;;19.24;98.89;97534.72;5050252;28;20041;-62
2022/09/24 06:55:16;;;;;;;16.35;5.90;;;;;;;18.24;100.00;97535.75;5053292;28;20029;-62
2022/09/24 06:57:42;;;;;;;15.68;5.53;;;;;;;21.09;93.83;97545.16;5051605;28;20105;-60
2022/09/24 07:00:08;;;;;;;15.00;5.50;;;;;;;22.68;82.22;97549.66;5051456;28;20021;-60
2022/09/24 07:02:33;;;;;;;16.65;5.53;;;;;;;23.77;68.70;97557.44;5051609;28;20577;-60
2022/09/24 07:04:59;;;;;;;16.77;5.30;;;;;;;23.43;64.40;97550.19;5053372;28;20059;-62
2022/09/24 07:07:31;;;;;;;13.38;5.35;;;;;;;23.90;63.14;97551.72;5053263;28;20039;-62
2022/09/24 07:10:00;;;;;;;11.85;5.10;;;;;;;23.39;63.78;97542.69;5052153;28;20198;-60
2022/09/24 07:12:25;;;;;;;14.80;5.18;;;;;;;24.76;59.89;97537.41;5049750;28;20163;-61
2022/09/24 07:14:51;;;;;;;12.63;4.82;;;;;;;25.67;55.12;97537.41;5052798;28;20029;-60
2022/09/24 07:17:16;;;;;;;12.38;5.10;;;;;;;25.99;53.39;97530.34;5051614;28;20086;-61
2022/09/24 07:19:42;;;;;;;15.50;5.20;;;;;;;25.94;49.37;97537.06;5053233;28;20056;-64
2022/09/24 07:22:07;;;;;;;12.32;4.75;;;;;;;26.17;51.94;97544.31;5050378;28;20089;-63
2022/09/24 07:24:33;;;;;;;11.90;4.97;;;;;;;25.97;51.18;97546.56;5051535;28;20098;-61
2022/09/24 07:26:58;;;;;;;10.25;4.60;;;;;;;28.15;45.91;97541.84;5050278;28;20048;-61
2022/09/24 07:29:24;;;;;;;10.23;4.35;;;;;;;28.53;44.59;97544.44;5052217;28;20036;-60
2022/09/24 07:31:49;;;;;;;10.13;4.78;;;;;;;23.71;49.46;97541.22;5034408;28;20043;-60
2022/09/24 07:34:14;;;;;;;12.55;4.80;;;;;;;25.29;50.55;97542.47;5050969;28;20697;-61
2022/09/24 07:36:40;;;;;;;12.63;4.82;;;;;;;24.08;54.63;97540.97;5049105;28;20139;-61
2022/09/24 07:39:06;;;;;;;16.25;5.47;;;;;;;24.49;54.20;97543.78;5049469;28;20047;-61
2022/09/24 07:41:32;;;;;;;11.50;4.93;;;;;;;25.12;54.80;97542.41;5051355;28;20043;-63
2022/09/24 07:43:57;;;;;;;13.80;5.22;;;;;;;24.72;52.33;97546.72;5050568;28;20521;-61
2022/09/24 07:46:23;;;;;;;11.93;5.28;;;;;;;24.89;53.23;97542.25;5049517;28;20068;-61
2022/09/24 07:48:51;;;;;;;11.05;4.45;;;;;;;24.72;54.61;97540.53;5052225;28;20029;-60
2022/09/24 07:51:17;;;;;;;10.32;4.63;;;;;;;23.09;58.82;97547.44;5050341;28;20935;-60
2022/09/24 07:53:42;;;;;;;12.07;4.93;;;;;;;24.87;55.13;97554.91;5050441;28;20032;-61
2022/09/24 07:56:07;;;;;;;14.10;5.07;;;;;;;26.71;49.55;97547.09;5048686;28;20864;-60
2022/09/24 07:58:33;;;;;;;12.75;5.20;;;;;;;25.84;52.49;97541.72;5049654;28;20032;-62
2022/09/24 08:00:59;;;;;;;12.38;4.78;;;;;;;26.91;47.98;97550.16;5047518;28;20139;-60
2022/09/24 08:03:25;;;;;;;9.75;4.32;;;;;;;27.14;49.88;97537.78;5049847;28;20025;-62
2022/09/24 08:05:55;;;;;;;13.10;5.15;;;;;;;27.40;46.16;97537.41;5046888;28;20464;-60
2022/09/24 08:08:20;;;;;;;13.80;5.10;;;;;;;26.24;47.18;97531.94;5048230;28;20028;-62
2022/09/24 08:10:46;;;;;;;14.55;5.63;;;;;;;26.17;49.36;97538.97;5049817;28;20036;-60
2022/09/24 08:13:11;;;;;;;14.18;5.53;;;;;;;27.57;45.79;97535.41;5047484;28;20189;-61
2022/09/24 08:15:36;;;;;;;11.48;4.82;;;;;;;26.06;46.77;97544.69;5048338;28;20267;-60
2022/09/24 08:18:03;;;;;;;12.57;5.13;;;;;;;27.14;47.69;97541.28;5048830;28;20039;-60
2022/09/24 08:20:30;;;;;;;10.85;4.85;;;;;;;29.51;42.68;97541.28;5049827;28;20068;-60
2022/09/24 08:23:08;;;;;;;11.32;5.22;;;;;;;25.03;47.06;97548.75;5050767;28;20077;-60
2022/09/24 08:25:34;;;;;;;11.73;5.15;;;;;;;27.97;45.73;97539.53;5049805;28;20032;-61
2022/09/24 08:28:06;;;;;;;9.63;5.00;;;;;;;26.08;47.95;97542.69;5048159;28;20055;-63
2022/09/24 08:30:32;;;;;;;13.10;5.97;;;;;;;29.08;40.93;97546.66;5047524;28;20045;-60
2022/09/24 08:32:58;;;;;;;9.48;4.97;;;;;;;28.92;41.48;97556.63;5049703;28;20028;-60
2022/09/24 08:35:24;;;;;;;9.32;4.82;;;;;;;27.39;43.89;97536.59;5051545;28;20158;-60
2022/09/24 08:37:49;;;;;;;12.95;5.40;;;;;;;24.55;48.63;97545.00;5048129;28;20067;-61
2022/09/24 08:40:23;;;;;;;12.48;6.00;;;;;;;24.69;51.16;97546.22;5047884;28;20032;-62
2022/09/24 08:43:21;;;;;;;13.35;5.63;;;;;;;25.13;48.47;97537.94;5049070;28;20021;-64
2022/09/24 08:48:44;;;;;;;11.60;5.47;;;;;;;26.99;46.33;97543.91;5049697;28;20227;-60
2022/09/24 08:51:19;;;;;;;11.77;5.63;;;;;;;27.63;43.92;97545.44;5048764;28;20052;-63
2022/09/24 08:54:02;;;;;;;16.27;5.88;;;;;;;25.89;47.74;97539.38;5050148;28;20468;-63
2022/09/24 08:56:34;;;;;;;12.60;5.57;;;;;;;27.24;45.24;97535.69;5047976;28;20043;-60
2022/09/24 08:59:04;;;;;;;18.33;5.80;;;;;;;25.76;48.32;97533.72;5045933;28;20541;-62
2022/09/24 09:01:38;;;;;;;12.90;5.38;;;;;;;24.23;50.74;97533.22;5047742;28;20045;-62
2022/09/24 09:04:41;;;;;;;13.70;5.65;;;;;;;23.93;53.98;97540.75;5050629;28;20494;-60
2022/09/24 09:07:12;;;;;;;14.73;5.32;;;;;;;25.09;51.27;97541.91;5032430;28;20160;-61
2022/09/24 09:10:06;;;;;;;12.13;5.40;;;;;;;24.87;53.09;97538.06;5047544;28;20082;-62
2022/09/24 09:13:06;;;;;;;11.75;5.55;;;;;;;22.52;61.53;97545.84;5049033;28;20127;-61
2022/09/24 09:15:39;;;;;;;13.48;5.80;;;;;;;21.66;62.43;97542.56;5040496;28;20037;-60
2022/09/24 09:18:18;;;;;;;16.42;5.65;;;;;;;21.66;68.57;97538.09;5049760;28;20036;-60
2022/09/24 09:20:46;;;;;;;17.13;5.93;;;;;;;21.62;71.27;97547.34;5047934;28;20029;-60
2022/09/24 09:23:19;;;;;;;19.02;5.15;;;;;;;21.91;76.39;97535.81;5049803;28;20044;-61
2022/09/24 09:25:53;;;;;;;17.45;5.97;;;;;;;21.61;77.31;97532.38;5048238;28;20032;-62
2022/09/24 09:28:19;;;;;;;14.10;5.88;;;;;;;20.98;79.69;97539.00;5048475;28;20083;-60
2022/09/24 09:31:05;;;;;;;17.88;6.03;;;;;;;21.99;77.09;97543.84;5045579;28;20041;-63
2022/09/24 09:34:08;;;;;;;16.95;6.22;;;;;;;20.51;91.92;97541.44;5047133;28;20135;-62
2022/09/24 09:36:40;;;;;;;16.83;5.90;;;;;;;21.53;85.37;97542.88;5048774;28;20430;-60
2022/09/24 09:39:22;;;;;;;13.57;5.32;;;;;;;22.18;83.17;97544.75;5050194;28;20048;-60
2022/09/24 09:42:24;;;;;;;14.07;4.93;;;;;;;22.62;81.69;97551.09;5048234;28;20047;-61
2022/09/24 09:44:49;;;;;;;;;;;;;;;21.45;84.81;97550.72;5048644;28;20029;-60
2022/09/24 09:47:15;;;;;;;18.75;5.95;;;;;;;22.58;78.28;97548.91;5047872;28;19920;-61
2022/09/24 09:49:42;;;;;;;13.82;5.13;;;;;;;22.38;81.82;97556.97;5048521;28;20090;-60
2022/09/24 09:52:19;;;;;;;15.82;5.93;;;;;;;22.04;78.84;97546.09;5048704;28;20044;-63
2022/09/24 09:54:44;;;;;;;19.08;6.60;;;;;;;22.61;75.39;97557.41;5048815;28;20063;-59
2022/09/24 09:57:20;;;;;;;15.80;6.20;;;;;;;21.51;78.79;97544.84;5046451;28;20860;-60
2022/09/24 09:59:52;;;;;;;25.48;6.88;;;;;;;22.81;81.28;97551.94;5045092;28;20218;-60
2022/09/24 10:02:22;;;;;;;19.13;5.95;;;;;;;22.67;75.98;97553.31;5047198;28;20893;-62
2022/09/24 10:04:52;;;;;;;16.05;5.70;;;;;;;22.61;74.88;97556.59;5049123;28;20029;-60
2022/09/24 10:07:17;;;;;;;17.98;6.25;;;;;;;22.90;73.39;97554.56;5045272;28;20779;-63
2022/09/24 10:09:45;;;;;;;17.42;6.07;;;;;;;24.01;70.65;97562.09;5045697;28;20672;-63
2022/09/24 10:12:13;;;;;;;14.77;5.45;;;;;;;24.22;67.73;97566.19;5045764;28;20060;-61
2022/09/24 10:14:38;;;;;;;18.40;6.38;;;;;;;22.26;76.28;97544.91;5046540;28;20024;-62
2022/09/24 10:17:05;;;;;;;19.33;7.32;;;;;;;22.43;71.67;97546.75;5046381;28;20036;-60
2022/09/24 10:19:34;;;;;;;18.45;6.57;;;;;;;21.46;81.45;97541.78;5046646;28;20017;-59
2022/09/24 10:22:22;;;;;;;20.30;7.07;;;;;;;21.81;79.72;97541.13;5045875;28;20553;-63
2022/09/24 10:24:50;;;;;;;18.77;6.68;;;;;;;22.66;77.51;97536.53;5045847;28;20035;-60
2022/09/24 10:27:27;;;;;;;16.92;6.32;;;;;;;21.52;82.23;97534.09;5046017;28;20098;-59
2022/09/24 10:32:41;;;;;;;21.90;6.50;;;;;;;22.18;82.30;97531.47;5046652;28;20072;-62
2022/09/24 10:35:26;;;;;;;24.17;7.85;;;;;;;20.83;86.85;97529.78;5046198;28;20505;-60
2022/09/24 10:37:57;;;;;;;18.25;7.05;;;;;;;22.01;78.06;97536.56;5048504;28;20108;-61
2022/09/24 10:40:37;;;;;;;24.63;7.23;;;;;;;21.22;86.92;97540.38;5046316;28;20056;-60
2022/09/24 10:43:04;;;;;;;24.38;7.38;;;;;;;21.19;87.10;97538.00;5047246;28;20036;-61
2022/09/24 10:46:15;;;;;;;21.08;6.30;;;;;;;21.40;97.21;97532.53;5046882;28;20037;-61
2022/09/24 10:49:01;;;;;;;23.23;6.30;;;;;;;22.35;92.79;97538.69;5048298;28;20126;-61
2022/09/24 10:51:39;;;;;;;26.45;7.00;;;;;;;21.51;93.25;97534.25;5043456;28;20041;-64
2022/09/24 10:54:16;;;;;;;25.05;7.22;;;;;;;21.14;92.38;97538.44;5047672;28;20127;-63
2022/09/24 10:57:10;;;;;;;24.02;7.32;;;;;;;21.18;87.17;97523.09;5046730;28;20085;-64
2022/09/24 10:59:50;;;;;;;24.88;7.15;;;;;;;21.26;85.50;97530.34;5047401;28;20046;-63
2022/09/24 11:02:43;;;;;;;27.90;7.20;;;;;;;22.34;81.95;97529.03;5047056;28;20045;-62
2022/09/24 11:05:20;;;;;;;23.77;6.40;;;;;;;21.78;90.81;97522.84;5048827;28;20055;-64
2022/09/24 11:08:02;;;;;;;21.88;6.35;;;;;;;22.03;94.77;97521.34;5046956;28;20029;-62
2022/09/24 11:10:42;;;;;;;27.40;7.35;;;;;;;21.80;91.42;97528.00;5046327;28;20495;-62
2022/09/24 11:13:54;;;;;;;24.08;7.22;;;;;;;20.39;97.50;97534.59;5049342;28;20616;-65
2022/09/24 11:16:38;;;;;;;18.55;6.13;;;;;;;21.40;93.27;97534.38;5047716;28;20541;-65
2022/09/24 11:19:48;;;;;;;26.90;7.10;;;;;;;21.57;98.60;97533.66;5048310;28;20125;-64
2022/09/24 11:22:19;;;;;;;25.95;6.75;;;;;;;21.81;95.80;97535.00;5047562;28;20037;-62
2022/09/24 11:24:51;;;;;;;24.02;6.78;;;;;;;21.92;98.21;97526.84;5047543;28;20451;-64
2022/09/24 11:27:25;;;;;;;23.42;6.82;;;;;;;21.67;99.64;97530.97;5047650;28;20114;-64
2022/09/24 11:30:00;;;;;;;27.70;6.90;;;;;;;21.51;100.00;97534.25;5046925;28;20131;-63
2022/09/24 11:32:47;;;;;;;22.48;6.80;;;;;;;22.02;100.00;97527.66;5046859;28;20120;-63
2022/09/24 11:35:55;;;;;;;27.63;7.20;;;;;;;20.99;100.00;97518.66;5047806;28;20017;-64
2022/09/24 11:38:42;;;;;;;26.20;7.32;;;;;;;21.31;97.31;97531.56;5050278;28;20098;-64
2022/09/24 11:41:09;;;;;;;25.02;6.97;;;;;;;21.54;100.00;97516.22;5052110;28;20032;-61
2022/09/24 11:44:10;;;;;;;25.35;6.72;;;;;;;21.02;96.50;97526.28;5053377;28;20047;-62
2022/09/24 11:46:57;;;;;;;24.75;7.65;;;;;;;21.96;96.64;97522.91;5055049;28;20032;-61
2022/09/24 11:49:51;;;;;;;24.15;7.88;;;;;;;20.89;92.34;97521.28;5056478;28;20041;-60
2022/09/24 11:52:44;;;;;;;27.23;7.55;;;;;;;21.85;89.89;97523.09;5051129;28;20049;-60